Daihatsumaru — JD2764 — position and weather

sailwx.info

Track history (hours):
 
Tides and Currents Weather Stations Pressure Air Temp Water Temp Dewpoint Dewpoint Depression Visibility Wind Speed Wind Dir Waves Ship Positions

Daihatsumaru

Last reported at 2016-Jun-30 04:31 UTC. Time now 2016-Jul-01 08:15 UTC.
Position N 34°37' E 135°01'.

Length 106 m; draft 4.5 m.

Type: Cargo ship. MMSI: 431000701.

Date/timePositionNaut miles runAvg speedWind from/ knotsBaromVisibWave heightAir tempDewpointWater temp
2016-Jun-30 04:31N 34°37' E 135°01'1313.7
2016-Jun-30 03:33N 34°38' E 135°17'6 5.0
2016-Jun-30 02:23N 34°41' E 135°23'0 0.0
2016-Jun-30 01:29N 34°41' E 135°23'0 0.0
2016-Jun-30 00:29N 34°41' E 135°23'0 0.0
2016-Jun-29 23:29N 34°41' E 135°23'0 0.0
2016-Jun-29 22:33N 34°41' E 135°23'2 2.3
2016-Jun-29 21:30N 34°40' E 135°21'0 0.0
2016-Jun-29 20:30N 34°40' E 135°21'0 0.0
2016-Jun-29 19:24N 34°40' E 135°21'910.6
2016-Jun-29 18:33N 34°35' E 135°12'1312.8
2016-Jun-29 17:31N 34°36' E 134°56'3 0.1
2016-Jun-28 04:32N 34°37' E 134°59'1515.3
2016-Jun-28 03:33N 34°38' E 135°17'6 5.5
2016-Jun-28 02:28N 34°41' E 135°23'0 0.0
2016-Jun-28 01:04N 34°41' E 135°23'0 0.1
2016-Jun-28 00:22N 34°41' E 135°23'0 0.1
2016-Jun-27 23:28N 34°41' E 135°23'3 2.7
2016-Jun-27 22:23N 34°40' E 135°20'0 0.0
2016-Jun-27 21:29N 34°40' E 135°20'0 0.0
2016-Jun-27 20:29N 34°40' E 135°20'5 5.3
2016-Jun-27 19:33N 34°36' E 135°16'1212.4
2016-Jun-27 18:33N 34°37' E 135°01'  
2016-Jun-25 04:33N 34°37' E 134°56'1414.1
2016-Jun-25 03:33N 34°36' E 135°13'10 9.6
2016-Jun-25 02:33N 34°41' E 135°23'0 0.0
2016-Jun-25 01:33N 34°41' E 135°23'0 0.0
2016-Jun-25 00:33N 34°41' E 135°23'0 0.0
2016-Jun-24 23:33N 34°41' E 135°23'3 2.5
2016-Jun-24 22:32N 34°40' E 135°21'0 0.0
2016-Jun-24 21:26N 34°40' E 135°21'0 0.0
2016-Jun-24 20:32N 34°40' E 135°21'1 1.2
2016-Jun-24 19:33N 34°39' E 135°20'1414.1
2016-Jun-24 18:33N 34°35' E 135°03'7 0.2
2016-Jun-23 05:22N 34°36' E 134°56'911.7
2016-Jun-23 04:33N 34°36' E 135°07'1414.2
2016-Jun-23 03:33N 34°41' E 135°23'0 0.3
2016-Jun-23 02:32N 34°41' E 135°23'0 0.0
2016-Jun-23 01:33N 34°41' E 135°23'0 0.0
2016-Jun-23 00:33N 34°41' E 135°23'0 0.0
2016-Jun-22 23:33N 34°41' E 135°23'0 0.0
2016-Jun-22 22:34N 34°41' E 135°23'3 2.5
2016-Jun-22 21:28N 34°39' E 135°21'0 0.0
2016-Jun-22 20:28N 34°39' E 135°21'0 0.0
2016-Jun-22 19:33N 34°39' E 135°21'1212.1
2016-Jun-22 18:33N 34°35' E 135°08'1 0.0
2016-Jun-21 04:33N 34°36' E 135°07'1413.8
2016-Jun-21 03:33N 34°41' E 135°22'1 0.9
2016-Jun-21 02:30N 34°41' E 135°23'0 0.0
2016-Jun-21 01:24N 34°41' E 135°23'0 0.0
2016-Jun-21 00:30N 34°41' E 135°23'0 0.0
2016-Jun-20 23:30N 34°41' E 135°23'2 2.2
2016-Jun-20 22:25N 34°40' E 135°21'0 0.0
2016-Jun-20 21:31N 34°40' E 135°21'0 0.0
2016-Jun-20 20:19N 34°40' E 135°21'0 0.0
2016-Jun-20 19:31N 34°40' E 135°21'6 6.5
2016-Jun-20 18:33N 34°36' E 135°15'1414.2
2016-Jun-20 17:33N 34°37' E 134°58'  
Track history (hours):
 
Tides and Currents Weather Stations Pressure Air Temp Water Temp Dewpoint Dewpoint Depression Visibility Wind Speed Wind Dir Waves Ship Positions

Daihatsumaru

Last reported at 2016-Jun-30 04:31 UTC. Time now 2016-Jul-01 08:15 UTC.
Position N 34°37' E 135°01'.

Length 106 m; draft 4.5 m.

Type: Cargo ship. MMSI: 431000701.

Date/timePositionNaut miles runAvg speedWind from/ knotsBaromVisibWave heightAir tempDewpointWater temp
2016-Jun-30 04:31N 34°37' E 135°01'1313.7
2016-Jun-30 03:33N 34°38' E 135°17'6 5.0
2016-Jun-30 02:23N 34°41' E 135°23'0 0.0
2016-Jun-30 01:29N 34°41' E 135°23'0 0.0
2016-Jun-30 00:29N 34°41' E 135°23'0 0.0
2016-Jun-29 23:29N 34°41' E 135°23'0 0.0
2016-Jun-29 22:33N 34°41' E 135°23'2 2.3
2016-Jun-29 21:30N 34°40' E 135°21'0 0.0
2016-Jun-29 20:30N 34°40' E 135°21'0 0.0
2016-Jun-29 19:24N 34°40' E 135°21'910.6
2016-Jun-29 18:33N 34°35' E 135°12'1312.8
2016-Jun-29 17:31N 34°36' E 134°56'3 0.1
2016-Jun-28 04:32N 34°37' E 134°59'1515.3
2016-Jun-28 03:33N 34°38' E 135°17'6 5.5
2016-Jun-28 02:28N 34°41' E 135°23'0 0.0
2016-Jun-28 01:04N 34°41' E 135°23'0 0.1
2016-Jun-28 00:22N 34°41' E 135°23'0 0.1
2016-Jun-27 23:28N 34°41' E 135°23'3 2.7
2016-Jun-27 22:23N 34°40' E 135°20'0 0.0
2016-Jun-27 21:29N 34°40' E 135°20'0 0.0
2016-Jun-27 20:29N 34°40' E 135°20'5 5.3
2016-Jun-27 19:33N 34°36' E 135°16'1212.4
2016-Jun-27 18:33N 34°37' E 135°01'  
2016-Jun-25 04:33N 34°37' E 134°56'1414.1
2016-Jun-25 03:33N 34°36' E 135°13'10 9.6
2016-Jun-25 02:33N 34°41' E 135°23'0 0.0
2016-Jun-25 01:33N 34°41' E 135°23'0 0.0
2016-Jun-25 00:33N 34°41' E 135°23'0 0.0
2016-Jun-24 23:33N 34°41' E 135°23'3 2.5
2016-Jun-24 22:32N 34°40' E 135°21'0 0.0
2016-Jun-24 21:26N 34°40' E 135°21'0 0.0
2016-Jun-24 20:32N 34°40' E 135°21'1 1.2
2016-Jun-24 19:33N 34°39' E 135°20'1414.1
2016-Jun-24 18:33N 34°35' E 135°03'7 0.2
2016-Jun-23 05:22N 34°36' E 134°56'911.7
2016-Jun-23 04:33N 34°36' E 135°07'1414.2
2016-Jun-23 03:33N 34°41' E 135°23'0 0.3
2016-Jun-23 02:32N 34°41' E 135°23'0 0.0
2016-Jun-23 01:33N 34°41' E 135°23'0 0.0
2016-Jun-23 00:33N 34°41' E 135°23'0 0.0
2016-Jun-22 23:33N 34°41' E 135°23'0 0.0
2016-Jun-22 22:34N 34°41' E 135°23'3 2.5
2016-Jun-22 21:28N 34°39' E 135°21'0 0.0
2016-Jun-22 20:28N 34°39' E 135°21'0 0.0
2016-Jun-22 19:33N 34°39' E 135°21'1212.1
2016-Jun-22 18:33N 34°35' E 135°08'1 0.0
2016-Jun-21 04:33N 34°36' E 135°07'1413.8
2016-Jun-21 03:33N 34°41' E 135°22'1 0.9
2016-Jun-21 02:30N 34°41' E 135°23'0 0.0
2016-Jun-21 01:24N 34°41' E 135°23'0 0.0
2016-Jun-21 00:30N 34°41' E 135°23'0 0.0
2016-Jun-20 23:30N 34°41' E 135°23'2 2.2
2016-Jun-20 22:25N 34°40' E 135°21'0 0.0
2016-Jun-20 21:31N 34°40' E 135°21'0 0.0
2016-Jun-20 20:19N 34°40' E 135°21'0 0.0
2016-Jun-20 19:31N 34°40' E 135°21'6 6.5
2016-Jun-20 18:33N 34°36' E 135°15'1414.2
2016-Jun-20 17:33N 34°37' E 134°58'  

Dump ship's entire track history